sensor_id;sensor_type;location;lat;lon;timestamp;pressure;altitude;pressure_sealevel;temperature;humidity
4273;BME280;63887;53.656;9.810;2023-02-21T00:02:12;101350.28;;;8.22;100.00
4273;BME280;63887;53.656;9.810;2023-02-21T00:04:56;101352.03;;;8.22;100.00
4273;BME280;63887;53.656;9.810;2023-02-21T00:07:40;101351.28;;;8.18;100.00
4273;BME280;63887;53.656;9.810;2023-02-21T00:10:24;101362.44;;;8.23;100.00
4273;BME280;63887;53.656;9.810;2023-02-21T00:13:08;101365.00;;;8.25;100.00
4273;BME280;63887;53.656;9.810;2023-02-21T00:15:53;101359.94;;;8.20;100.00
4273;BME280;63887;53.656;9.810;2023-02-21T00:18:37;101371.25;;;8.21;100.00
4273;BME280;63887;53.656;9.810;2023-02-21T00:21:21;101363.34;;;8.22;100.00
4273;BME280;63887;53.656;9.810;2023-02-21T00:24:05;101363.25;;;8.25;100.00
4273;BME280;63887;53.656;9.810;2023-02-21T00:26:49;101364.09;;;8.26;100.00
4273;BME280;63887;53.656;9.810;2023-02-21T00:29:33;101368.56;;;8.22;100.00
4273;BME280;63887;53.656;9.810;2023-02-21T00:32:18;101362.56;;;8.20;100.00
4273;BME280;63887;53.656;9.810;2023-02-21T00:35:02;101373.84;;;8.21;100.00
4273;BME280;63887;53.656;9.810;2023-02-21T00:37:48;101372.78;;;8.26;100.00
4273;BME280;63887;53.656;9.810;2023-02-21T00:40:31;101374.72;;;8.21;100.00
4273;BME280;63887;53.656;9.810;2023-02-21T00:43:15;101369.75;;;8.14;100.00
4273;BME280;63887;53.656;9.810;2023-02-21T00:45:59;101388.03;;;8.14;100.00
4273;BME280;63887;53.656;9.810;2023-02-21T00:48:44;101383.72;;;8.13;100.00
4273;BME280;63887;53.656;9.810;2023-02-21T00:51:28;101382.06;;;8.10;100.00
4273;BME280;63887;53.656;9.810;2023-02-21T00:54:12;101380.41;;;8.07;100.00
4273;BME280;63887;53.656;9.810;2023-02-21T00:56:56;101381.22;;;8.10;100.00
4273;BME280;63887;53.656;9.810;2023-02-21T00:59:40;101380.41;;;8.07;100.00
4273;BME280;63887;53.656;9.810;2023-02-21T01:02:24;101379.50;;;8.08;100.00
4273;BME280;63887;53.656;9.810;2023-02-21T01:05:09;101379.63;;;8.05;100.00
4273;BME280;63887;53.656;9.810;2023-02-21T01:07:54;101381.31;;;8.06;100.00
4273;BME280;63887;53.656;9.810;2023-02-21T01:10:39;101381.16;;;8.11;100.00
4273;BME280;63887;53.656;9.810;2023-02-21T01:13:23;101377.00;;;8.05;100.00
4273;BME280;63887;53.656;9.810;2023-02-21T01:16:08;101377.84;;;8.06;100.00
4273;BME280;63887;53.656;9.810;2023-02-21T01:18:52;101382.13;;;8.08;100.00
4273;BME280;63887;53.656;9.810;2023-02-21T01:21:38;101378.66;;;8.08;100.00
4273;BME280;63887;53.656;9.810;2023-02-21T01:24:21;101372.72;;;8.03;100.00
4273;BME280;63887;53.656;9.810;2023-02-21T01:27:05;101372.78;;;8.01;100.00
4273;BME280;63887;53.656;9.810;2023-02-21T01:29:49;101376.16;;;8.05;100.00
4273;BME280;63887;53.656;9.810;2023-02-21T01:32:33;101384.84;;;8.05;100.00
4273;BME280;63887;53.656;9.810;2023-02-21T01:35:16;101382.06;;;8.10;100.00
4273;BME280;63887;53.656;9.810;2023-02-21T01:38:02;101385.53;;;8.11;100.00
4273;BME280;63887;53.656;9.810;2023-02-21T01:40:46;101378.00;;;8.01;100.00
4273;BME280;63887;53.656;9.810;2023-02-21T01:43:30;101381.38;;;8.05;100.00
4273;BME280;63887;53.656;9.810;2023-02-21T01:46:12;101381.50;;;8.00;100.00
4273;BME280;63887;53.656;9.810;2023-02-21T01:48:57;101384.19;;;7.99;100.00
4273;BME280;63887;53.656;9.810;2023-02-21T01:51:42;101387.53;;;8.02;100.00
4273;BME280;63887;53.656;9.810;2023-02-21T01:54:29;101386.78;;;7.99;100.00
4273;BME280;63887;53.656;9.810;2023-02-21T01:57:14;101381.44;;;8.03;100.00
4273;BME280;63887;53.656;9.810;2023-02-21T01:59:59;101390.25;;;7.99;100.00
4273;BME280;63887;53.656;9.810;2023-02-21T02:02:47;101386.59;;;8.05;100.00
4273;BME280;63887;53.656;9.810;2023-02-21T02:05:33;101380.53;;;8.04;100.00
4273;BME280;63887;53.656;9.810;2023-02-21T02:08:18;101378.16;;;7.97;100.00
4273;BME280;63887;53.656;9.810;2023-02-21T02:11:07;101383.94;;;8.06;100.00
4273;BME280;63887;53.656;9.810;2023-02-21T02:13:58;101380.59;;;8.01;100.00
4273;BME280;63887;53.656;9.810;2023-02-21T02:16:28;101382.28;;;8.04;100.00
4273;BME280;63887;53.656;9.810;2023-02-21T02:19:14;101384.03;;;8.03;100.00
4273;BME280;63887;53.656;9.810;2023-02-21T02:24:43;101384.97;;;8.01;100.00
4273;BME280;63887;53.656;9.810;2023-02-21T02:30:08;101396.22;;;8.03;100.00
4273;BME280;63887;53.656;9.810;2023-02-21T02:32:49;101384.03;;;8.03;100.00
4273;BME280;63887;53.656;9.810;2023-02-21T02:35:24;101392.75;;;8.02;100.00
4273;BME280;63887;53.656;9.810;2023-02-21T02:37:54;101391.97;;;8.00;100.00
4273;BME280;63887;53.656;9.810;2023-02-21T02:40:26;101398.81;;;8.04;100.00
4273;BME280;63887;53.656;9.810;2023-02-21T02:43:00;101401.09;;;8.14;100.00
4273;BME280;63887;53.656;9.810;2023-02-21T02:45:29;101411.81;;;8.06;100.00
4273;BME280;63887;53.656;9.810;2023-02-21T02:47:56;101399.59;;;8.06;100.00
4273;BME280;63887;53.656;9.810;2023-02-21T02:50:28;101397.84;;;8.07;100.00
4273;BME280;63887;53.656;9.810;2023-02-21T02:52:59;101409.25;;;8.04;100.00
4273;BME280;63887;53.656;9.810;2023-02-21T02:55:31;101403.94;;;8.07;100.00
4273;BME280;63887;53.656;9.810;2023-02-21T02:57:59;101410.00;;;8.08;100.00
4273;BME280;63887;53.656;9.810;2023-02-21T03:00:27;101409.25;;;8.04;100.00
4273;BME280;63887;53.656;9.810;2023-02-21T03:02:58;101405.09;;;7.99;100.00
4273;BME280;63887;53.656;9.810;2023-02-21T03:05:42;101402.41;;;8.00;100.00
4273;BME280;63887;53.656;9.810;2023-02-21T03:08:13;101406.78;;;8.00;100.00
4273;BME280;63887;53.656;9.810;2023-02-21T03:10:47;101405.94;;;7.99;100.00
4273;BME280;63887;53.656;9.810;2023-02-21T03:13:19;101411.22;;;7.98;100.00
4273;BME280;63887;53.656;9.810;2023-02-21T03:15:48;101403.31;;;7.99;100.00
4273;BME280;63887;53.656;9.810;2023-02-21T03:18:17;101412.22;;;7.94;100.00
4273;BME280;63887;53.656;9.810;2023-02-21T03:20:51;101408.53;;;7.99;100.00
4273;BME280;63887;53.656;9.810;2023-02-21T03:23:18;101413.88;;;7.96;100.00
4273;BME280;63887;53.656;9.810;2023-02-21T03:25:46;101410.34;;;7.97;100.00
4273;BME280;63887;53.656;9.810;2023-02-21T03:28:16;101402.28;;;8.05;100.00
4273;BME280;63887;53.656;9.810;2023-02-21T03:30:43;101403.94;;;8.07;100.00
4273;BME280;63887;53.656;9.810;2023-02-21T03:33:11;101421.03;;;7.91;100.00
4273;BME280;63887;53.656;9.810;2023-02-21T03:35:38;101413.25;;;7.90;100.00
4273;BME280;63887;53.656;9.810;2023-02-21T03:38:05;101412.41;;;7.88;100.00
4273;BME280;63887;53.656;9.810;2023-02-21T03:40:32;101408.09;;;7.87;100.00
4273;BME280;63887;53.656;9.810;2023-02-21T03:43:02;101414.16;;;7.89;100.00
4273;BME280;63887;53.656;9.810;2023-02-21T03:45:36;101420.34;;;7.85;100.00
4273;BME280;63887;53.656;9.810;2023-02-21T03:48:06;101425.63;;;7.83;100.00
4273;BME280;63887;53.656;9.810;2023-02-21T03:50:35;101421.22;;;7.85;100.00
4273;BME280;63887;53.656;9.810;2023-02-21T03:53:01;101419.56;;;7.83;100.00
4273;BME280;63887;53.656;9.810;2023-02-21T03:55:30;101433.22;;;7.91;100.00
4273;BME280;63887;53.656;9.810;2023-02-21T03:57:59;101422.56;;;7.97;100.00
4273;BME280;63887;53.656;9.810;2023-02-21T04:00:27;101432.31;;;7.92;100.00
4273;BME280;63887;53.656;9.810;2023-02-21T04:02:54;101428.09;;;7.88;100.00
4273;BME280;63887;53.656;9.810;2023-02-21T04:05:28;101433.69;;;7.77;100.00
4273;BME280;63887;53.656;9.810;2023-02-21T04:07:55;101432.88;;;7.75;100.00
4273;BME280;63887;53.656;9.810;2023-02-21T04:10:22;101431.00;;;7.78;100.00
4273;BME280;63887;53.656;9.810;2023-02-21T04:12:49;101430.00;;;7.83;100.00
4273;BME280;63887;53.656;9.810;2023-02-21T04:15:16;101435.31;;;7.80;100.00
4273;BME280;63887;53.656;9.810;2023-02-21T04:17:43;101425.06;;;7.73;100.00
4273;BME280;63887;53.656;9.810;2023-02-21T04:20:09;101423.47;;;7.69;100.00
4273;BME280;63887;53.656;9.810;2023-02-21T04:22:41;101421.06;;;7.63;100.00
4273;BME280;63887;53.656;9.810;2023-02-21T04:25:07;101429.00;;;7.59;100.00
4273;BME280;63887;53.656;9.810;2023-02-21T04:27:44;101429.22;;;7.53;100.00
4273;BME280;63887;53.656;9.810;2023-02-21T04:30:12;101435.25;;;7.55;100.00
4273;BME280;63887;53.656;9.810;2023-02-21T04:32:38;101422.44;;;7.47;100.00
4273;BME280;63887;53.656;9.810;2023-02-21T04:35:09;101423.34;;;7.46;100.00
4273;BME280;63887;53.656;9.810;2023-02-21T04:37:36;101429.78;;;7.34;100.00
4273;BME280;63887;53.656;9.810;2023-02-21T04:40:02;101423.53;;;7.40;100.00
4273;BME280;63887;53.656;9.810;2023-02-21T04:42:31;101423.72;;;7.34;100.00
4273;BME280;63887;53.656;9.810;2023-02-21T04:44:58;101416.06;;;7.28;100.00
4273;BME280;63887;53.656;9.810;2023-02-21T04:47:25;101419.53;;;7.28;100.00
4273;BME280;63887;53.656;9.810;2023-02-21T04:49:52;101417.81;;;7.27;100.00
4273;BME280;63887;53.656;9.810;2023-02-21T04:52:18;101419.50;;;7.30;100.00
4273;BME280;63887;53.656;9.810;2023-02-21T04:54:45;101420.69;;;7.20;100.00
4273;BME280;63887;53.656;9.810;2023-02-21T04:57:12;101424.09;;;7.22;100.00
4273;BME280;63887;53.656;9.810;2023-02-21T04:59:38;101423.28;;;7.20;100.00
4273;BME280;63887;53.656;9.810;2023-02-21T05:02:04;101427.59;;;7.21;100.00
4273;BME280;63887;53.656;9.810;2023-02-21T05:04:33;101425.03;;;7.19;100.00
4273;BME280;63887;53.656;9.810;2023-02-21T05:07:00;101419.88;;;7.17;100.00
4273;BME280;63887;53.656;9.810;2023-02-21T05:09:26;101423.28;;;7.20;100.00
4273;BME280;63887;53.656;9.810;2023-02-21T05:11:52;101428.66;;;7.13;100.00
4273;BME280;63887;53.656;9.810;2023-02-21T05:14:19;101437.28;;;7.17;100.00
4273;BME280;63887;53.656;9.810;2023-02-21T05:16:45;101439.84;;;7.18;100.00
4273;BME280;63887;53.656;9.810;2023-02-21T05:19:11;101439.78;;;7.20;100.00
4273;BME280;63887;53.656;9.810;2023-02-21T05:21:39;101433.78;;;7.18;100.00
4273;BME280;63887;53.656;9.810;2023-02-21T05:24:06;101437.34;;;7.14;100.00
4273;BME280;63887;53.656;9.810;2023-02-21T05:26:33;101432.13;;;7.14;100.00
4273;BME280;63887;53.656;9.810;2023-02-21T05:29:00;101434.63;;;7.18;100.00
4273;BME280;63887;53.656;9.810;2023-02-21T05:31:26;101437.41;;;7.12;100.00
4273;BME280;63887;53.656;9.810;2023-02-21T05:33:53;101439.91;;;7.17;100.00
4273;BME280;63887;53.656;9.810;2023-02-21T05:36:19;101442.56;;;7.14;100.00
4273;BME280;63887;53.656;9.810;2023-02-21T05:38:50;101437.53;;;7.08;100.00
4273;BME280;63887;53.656;9.810;2023-02-21T05:41:17;101438.50;;;7.05;100.00
4273;BME280;63887;53.656;9.810;2023-02-21T05:43:44;101440.97;;;7.10;100.00
4273;BME280;63887;53.656;9.810;2023-02-21T05:46:21;101446.22;;;7.08;100.00
4273;BME280;63887;53.656;9.810;2023-02-21T05:48:48;101454.91;;;7.09;100.00
4273;BME280;63887;53.656;9.810;2023-02-21T05:51:15;101450.44;;;7.12;100.00
4273;BME280;63887;53.656;9.810;2023-02-21T05:53:41;101453.94;;;7.11;100.00
4273;BME280;63887;53.656;9.810;2023-02-21T05:56:09;101457.59;;;7.06;100.00
4273;BME280;63887;53.656;9.810;2023-02-21T05:58:36;101458.34;;;7.09;100.00
4273;BME280;63887;53.656;9.810;2023-02-21T06:01:03;101469.50;;;7.16;100.00
4273;BME280;63887;53.656;9.810;2023-02-21T06:03:29;101466.09;;;7.12;100.00
4273;BME280;63887;53.656;9.810;2023-02-21T06:05:56;101473.16;;;7.09;100.00
4273;BME280;63887;53.656;9.810;2023-02-21T06:08:22;101466.28;;;7.06;100.00
4273;BME280;63887;53.656;9.810;2023-02-21T06:10:49;101473.25;;;7.06;100.00
4273;BME280;63887;53.656;9.810;2023-02-21T06:13:17;101470.66;;;7.06;100.00
4273;BME280;63887;53.656;9.810;2023-02-21T06:15:43;101470.84;;;7.00;100.00
4273;BME280;63887;53.656;9.810;2023-02-21T06:18:11;101475.16;;;6.99;100.00
4273;BME280;63887;53.656;9.810;2023-02-21T06:20:37;101478.66;;;7.00;100.00
4273;BME280;63887;53.656;9.810;2023-02-21T06:23:04;101481.28;;;6.98;100.00
4273;BME280;63887;53.656;9.810;2023-02-21T06:25:30;101484.53;;;7.06;100.00
4273;BME280;63887;53.656;9.810;2023-02-21T06:27:56;101485.50;;;7.04;100.00
4273;BME280;63887;53.656;9.810;2023-02-21T06:30:25;101493.94;;;7.12;100.00
4273;BME280;63887;53.656;9.810;2023-02-21T06:32:51;101503.25;;;7.21;99.86
4273;BME280;63887;53.656;9.810;2023-02-21T06:35:17;101511.22;;;7.16;99.66
4273;BME280;63887;53.656;9.810;2023-02-21T06:37:44;101509.38;;;7.20;99.18
4273;BME280;63887;53.656;9.810;2023-02-21T06:40:10;101506.81;;;7.18;99.71
4273;BME280;63887;53.656;9.810;2023-02-21T06:42:37;101505.13;;;7.17;99.61
4273;BME280;63887;53.656;9.810;2023-02-21T06:45:03;101511.28;;;7.13;99.83
4273;BME280;63887;53.656;9.810;2023-02-21T06:47:31;101505.16;;;7.15;98.72
4273;BME280;63887;53.656;9.810;2023-02-21T06:49:57;101501.41;;;7.24;98.53
4273;BME280;63887;53.656;9.810;2023-02-21T06:52:24;101511.19;;;7.17;98.86
4273;BME280;63887;53.656;9.810;2023-02-21T06:54:50;101506.88;;;7.16;99.45
4273;BME280;63887;53.656;9.810;2023-02-21T06:57:16;101505.97;;;7.17;99.00
4273;BME280;63887;53.656;9.810;2023-02-21T06:59:43;101500.56;;;7.24;98.95
4273;BME280;63887;53.656;9.810;2023-02-21T07:02:10;101505.03;;;7.20;98.87
4273;BME280;63887;53.656;9.810;2023-02-21T07:04:42;101506.78;;;7.20;99.38
4273;BME280;63887;53.656;9.810;2023-02-21T07:07:08;101506.53;;;7.27;98.99
4273;BME280;63887;53.656;9.810;2023-02-21T07:09:34;101515.22;;;7.29;98.90
4273;BME280;63887;53.656;9.810;2023-02-21T07:12:00;101511.69;;;7.30;98.92
4273;BME280;63887;53.656;9.810;2023-02-21T07:14:28;101513.25;;;7.36;98.46
4273;BME280;63887;53.656;9.810;2023-02-21T07:16:54;101520.28;;;7.34;98.20
4273;BME280;63887;53.656;9.810;2023-02-21T07:19:20;101526.22;;;7.39;98.69
4273;BME280;63887;53.656;9.810;2023-02-21T07:21:48;101527.81;;;7.43;98.68
4273;BME280;63887;53.656;9.810;2023-02-21T07:24:14;101528.00;;;7.37;98.82
4273;BME280;63887;53.656;9.810;2023-02-21T07:26:41;101531.44;;;7.39;98.80
4273;BME280;63887;53.656;9.810;2023-02-21T07:29:07;101536.50;;;7.43;98.32
4273;BME280;63887;53.656;9.810;2023-02-21T07:31:33;101531.19;;;7.48;98.19
4273;BME280;63887;53.656;9.810;2023-02-21T07:34:00;101536.25;;;7.53;98.25
4273;BME280;63887;53.656;9.810;2023-02-21T07:36:26;101537.09;;;7.53;98.08
4273;BME280;63887;53.656;9.810;2023-02-21T07:38:54;101535.25;;;7.57;97.66
4273;BME280;63887;53.656;9.810;2023-02-21T07:41:20;101543.72;;;7.65;97.10
4273;BME280;63887;53.656;9.810;2023-02-21T07:43:46;101546.88;;;7.76;96.85
4273;BME280;63887;53.656;9.810;2023-02-21T07:46:13;101552.00;;;7.79;96.29
4273;BME280;63887;53.656;9.810;2023-02-21T07:48:40;101549.44;;;7.77;96.43
4273;BME280;63887;53.656;9.810;2023-02-21T07:51:06;101559.88;;;7.77;96.53
4273;BME280;63887;53.656;9.810;2023-02-21T07:53:33;101563.19;;;7.83;96.12
4273;BME280;63887;53.656;9.810;2023-02-21T07:56:01;101570.66;;;7.95;96.54
4273;BME280;63887;53.656;9.810;2023-02-21T07:58:27;101568.91;;;7.95;95.55
4273;BME280;63887;53.656;9.810;2023-02-21T08:00:53;101571.91;;;8.11;95.04
4273;BME280;63887;53.656;9.810;2023-02-21T08:03:20;101575.13;;;8.19;95.02
4273;BME280;63887;53.656;9.810;2023-02-21T08:05:47;101582.81;;;8.24;95.02
4273;BME280;63887;53.656;9.810;2023-02-21T08:08:13;101575.56;;;8.32;95.07
4273;BME280;63887;53.656;9.810;2023-02-21T08:10:40;101573.78;;;8.35;95.23
4273;BME280;63887;53.656;9.810;2023-02-21T08:13:08;101574.34;;;8.44;95.06
4273;BME280;63887;53.656;9.810;2023-02-21T08:15:34;101584.69;;;8.48;94.20
4273;BME280;63887;53.656;9.810;2023-02-21T08:18:00;101568.56;;;8.60;93.68
4273;BME280;63887;53.656;9.810;2023-02-21T08:20:27;101583.50;;;8.57;93.28
4273;BME280;63887;53.656;9.810;2023-02-21T08:22:53;101583.00;;;8.46;94.12
4273;BME280;63887;53.656;9.810;2023-02-21T08:25:19;101582.81;;;8.52;93.75
4273;BME280;63887;53.656;9.810;2023-02-21T08:27:46;101586.34;;;8.51;93.12
4273;BME280;63887;53.656;9.810;2023-02-21T08:30:19;101590.78;;;8.49;92.52
4273;BME280;63887;53.656;9.810;2023-02-21T08:32:45;101586.22;;;8.54;92.86
4273;BME280;63887;53.656;9.810;2023-02-21T08:35:12;101597.25;;;8.37;93.53
4273;BME280;63887;53.656;9.810;2023-02-21T08:37:39;101596.06;;;8.46;93.65
4273;BME280;63887;53.656;9.810;2023-02-21T08:40:09;101594.19;;;8.51;92.90
4273;BME280;63887;53.656;9.810;2023-02-21T08:42:36;101595.09;;;8.50;91.94
4273;BME280;63887;53.656;9.810;2023-02-21T08:45:02;101596.44;;;8.61;92.01
4273;BME280;63887;53.656;9.810;2023-02-21T08:47:33;101592.59;;;8.72;91.26
4273;BME280;63887;53.656;9.810;2023-02-21T08:49:59;101590.94;;;8.69;91.54
4273;BME280;63887;53.656;9.810;2023-02-21T08:52:25;101601.38;;;8.71;90.90
4273;BME280;63887;53.656;9.810;2023-02-21T08:54:52;101597.44;;;8.84;89.83
4273;BME280;63887;53.656;9.810;2023-02-21T08:57:18;101596.56;;;8.83;89.03
4273;BME280;63887;53.656;9.810;2023-02-21T08:59:44;101598.97;;;8.89;89.35
4273;BME280;63887;53.656;9.810;2023-02-21T09:02:14;101608.47;;;8.92;89.95
4273;BME280;63887;53.656;9.810;2023-02-21T09:04:42;101611.00;;;8.95;90.58
4273;BME280;63887;53.656;9.810;2023-02-21T09:07:10;101606.22;;;9.08;90.20
4273;BME280;63887;53.656;9.810;2023-02-21T09:09:37;101614.31;;;9.00;90.37
4273;BME280;63887;53.656;9.810;2023-02-21T09:12:03;101608.84;;;9.06;90.23
4273;BME280;63887;53.656;9.810;2023-02-21T09:14:32;101615.06;;;9.04;90.55
4273;BME280;63887;53.656;9.810;2023-02-21T09:16:58;101612.06;;;9.14;89.71
4273;BME280;63887;53.656;9.810;2023-02-21T09:19:25;101613.78;;;9.15;88.52
4273;BME280;63887;53.656;9.810;2023-02-21T09:21:52;101618.41;;;9.07;88.50
4273;BME280;63887;53.656;9.810;2023-02-21T09:24:21;101615.47;;;8.91;89.02
4273;BME280;63887;53.656;9.810;2023-02-21T09:26:49;101625.00;;;8.94;89.13
4273;BME280;63887;53.656;9.810;2023-02-21T09:29:18;101629.44;;;8.90;86.98
4273;BME280;63887;53.656;9.810;2023-02-21T09:31:44;101624.53;;;9.08;87.00
4273;BME280;63887;53.656;9.810;2023-02-21T09:34:11;101628.31;;;8.99;87.81
4273;BME280;63887;53.656;9.810;2023-02-21T09:36:37;101628.94;;;9.06;86.66
4273;BME280;63887;53.656;9.810;2023-02-21T09:39:05;101627.34;;;9.02;86.95
4273;BME280;63887;53.656;9.810;2023-02-21T09:41:31;101631.47;;;9.09;87.53
4273;BME280;63887;53.656;9.810;2023-02-21T09:44:00;101622.66;;;9.11;85.17
4273;BME280;63887;53.656;9.810;2023-02-21T09:46:28;101632.03;;;9.17;85.89
4273;BME280;63887;53.656;9.810;2023-02-21T09:48:57;101622.72;;;9.33;86.00
4273;BME280;63887;53.656;9.810;2023-02-21T09:51:24;101628.72;;;9.37;84.32
4273;BME280;63887;53.656;9.810;2023-02-21T09:53:51;101642.31;;;9.23;84.15
4273;BME280;63887;53.656;9.810;2023-02-21T09:56:20;101639.34;;;9.32;83.46
4273;BME280;63887;53.656;9.810;2023-02-21T09:58:50;101640.25;;;9.31;83.48
4273;BME280;63887;53.656;9.810;2023-02-21T10:01:19;101642.81;;;9.33;84.00
4273;BME280;63887;53.656;9.810;2023-02-21T10:03:47;101641.66;;;9.41;82.20
4273;BME280;63887;53.656;9.810;2023-02-21T10:06:22;101645.75;;;9.48;82.62
4273;BME280;63887;53.656;9.810;2023-02-21T10:08:52;101647.50;;;9.48;82.59
4273;BME280;63887;53.656;9.810;2023-02-21T10:11:27;101645.63;;;9.51;81.22
4273;BME280;63887;53.656;9.810;2023-02-21T10:14:00;101645.59;;;9.53;81.91
4273;BME280;63887;53.656;9.810;2023-02-21T10:16:28;101651.91;;;9.47;82.79
4273;BME280;63887;53.656;9.810;2023-02-21T10:19:00;101642.22;;;9.49;82.40
4273;BME280;63887;53.656;9.810;2023-02-21T10:21:29;101649.03;;;9.55;81.58
4273;BME280;63887;53.656;9.810;2023-02-21T10:23:57;101646.97;;;9.63;81.62
4273;BME280;63887;53.656;9.810;2023-02-21T10:26:30;101648.91;;;9.58;82.01
4273;BME280;63887;53.656;9.810;2023-02-21T10:28:58;101653.69;;;9.70;81.56
4273;BME280;63887;53.656;9.810;2023-02-21T10:31:27;101653.94;;;9.88;81.88
4273;BME280;63887;53.656;9.810;2023-02-21T10:33:55;101660.34;;;10.02;80.68
4273;BME280;63887;53.656;9.810;2023-02-21T10:36:24;101658.53;;;10.04;79.88
4273;BME280;63887;53.656;9.810;2023-02-21T10:38:52;101658.84;;;10.19;80.55
4273;BME280;63887;53.656;9.810;2023-02-21T10:41:20;101663.50;;;10.12;81.60
4273;BME280;63887;53.656;9.810;2023-02-21T10:43:49;101668.13;;;10.29;80.38
4273;BME280;63887;53.656;9.810;2023-02-21T10:46:19;101669.19;;;10.23;79.52
4273;BME280;63887;53.656;9.810;2023-02-21T10:48:49;101669.03;;;10.28;78.38
4273;BME280;63887;53.656;9.810;2023-02-21T10:51:17;101674.53;;;10.20;78.80
4273;BME280;63887;53.656;9.810;2023-02-21T10:53:53;101681.59;;;10.18;79.35
4273;BME280;63887;53.656;9.810;2023-02-21T10:56:26;101669.97;;;10.25;79.20
4273;BME280;63887;53.656;9.810;2023-02-21T10:58:55;101675.78;;;10.33;80.65
4273;BME280;63887;53.656;9.810;2023-02-21T11:01:29;101673.47;;;10.48;78.92
4273;BME280;63887;53.656;9.810;2023-02-21T11:03:56;101672.09;;;10.61;76.59
4273;BME280;63887;53.656;9.810;2023-02-21T11:06:25;101668.91;;;10.74;75.46
4273;BME280;63887;53.656;9.810;2023-02-21T11:08:52;101670.53;;;10.55;75.12
4273;BME280;63887;53.656;9.810;2023-02-21T11:11:30;101672.09;;;10.61;74.37
4273;BME280;63887;53.656;9.810;2023-02-21T11:14:05;101676.78;;;10.53;76.44
4273;BME280;63887;53.656;9.810;2023-02-21T11:16:32;101679.66;;;10.47;77.08
4273;BME280;63887;53.656;9.810;2023-02-21T11:19:03;101674.94;;;10.55;75.63
4273;BME280;63887;53.656;9.810;2023-02-21T11:21:30;101668.59;;;10.60;74.51
4273;BME280;63887;53.656;9.810;2023-02-21T11:23:58;101667.63;;;10.63;75.84
4273;BME280;63887;53.656;9.810;2023-02-21T11:26:27;101665.84;;;10.63;76.20
4273;BME280;63887;53.656;9.810;2023-02-21T11:28:55;101675.38;;;10.66;75.79
4273;BME280;63887;53.656;9.810;2023-02-21T11:31:34;101663.25;;;10.41;75.14
4273;BME280;63887;53.656;9.810;2023-02-21T11:34:02;101665.88;;;10.41;75.40
4273;BME280;63887;53.656;9.810;2023-02-21T11:36:29;101664.97;;;10.42;75.88
4273;BME280;63887;53.656;9.810;2023-02-21T11:39:01;101663.06;;;10.46;76.28
4273;BME280;63887;53.656;9.810;2023-02-21T11:41:29;101657.25;;;10.38;77.47
4273;BME280;63887;53.656;9.810;2023-02-21T11:43:56;101658.16;;;10.37;76.59
4273;BME280;63887;53.656;9.810;2023-02-21T11:46:28;101664.88;;;10.44;77.24
4273;BME280;63887;53.656;9.810;2023-02-21T11:48:59;101659.00;;;10.37;77.95
4273;BME280;63887;53.656;9.810;2023-02-21T11:51:37;101661.16;;;10.28;77.97
4273;BME280;63887;53.656;9.810;2023-02-21T11:54:04;101663.59;;;10.32;79.43
4273;BME280;63887;53.656;9.810;2023-02-21T11:56:37;101659.94;;;10.36;79.16
4273;BME280;63887;53.656;9.810;2023-02-21T11:59:10;101662.34;;;10.42;79.26
4273;BME280;63887;53.656;9.810;2023-02-21T12:01:39;101668.03;;;10.52;79.30
4273;BME280;63887;53.656;9.810;2023-02-21T12:04:21;101662.00;;;10.72;77.67
4273;BME280;63887;53.656;9.810;2023-02-21T12:06:53;101654.63;;;10.60;78.86
4273;BME280;63887;53.656;9.810;2023-02-21T12:09:24;101656.88;;;10.69;80.20
4273;BME280;63887;53.656;9.810;2023-02-21T12:11:56;101659.00;;;10.81;79.53
4273;BME280;63887;53.656;9.810;2023-02-21T12:14:32;101659.13;;;10.78;79.72
4273;BME280;63887;53.656;9.810;2023-02-21T12:17:03;101662.81;;;10.74;80.16
4273;BME280;63887;53.656;9.810;2023-02-21T12:19:38;101662.47;;;10.82;79.90
4273;BME280;63887;53.656;9.810;2023-02-21T12:22:11;101661.75;;;10.78;79.26
4273;BME280;63887;53.656;9.810;2023-02-21T12:24:54;101665.22;;;10.79;80.10
4273;BME280;63887;53.656;9.810;2023-02-21T12:27:27;101668.47;;;10.63;81.47
4273;BME280;63887;53.656;9.810;2023-02-21T12:30:03;101663.94;;;10.67;80.92
4273;BME280;63887;53.656;9.810;2023-02-21T12:32:47;101671.03;;;10.65;82.07
4273;BME280;63887;53.656;9.810;2023-02-21T12:35:32;101669.19;;;10.67;81.18
4273;BME280;63887;53.656;9.810;2023-02-21T12:38:04;101667.63;;;10.63;82.88
4273;BME280;63887;53.656;9.810;2023-02-21T12:40:33;101674.50;;;10.65;81.75
4273;BME280;63887;53.656;9.810;2023-02-21T12:43:09;101667.50;;;10.66;80.47
4273;BME280;63887;53.656;9.810;2023-02-21T12:45:45;101673.34;;;10.51;82.20
4273;BME280;63887;53.656;9.810;2023-02-21T12:48:16;101669.38;;;10.40;82.03
4273;BME280;63887;53.656;9.810;2023-02-21T12:50:45;101673.69;;;10.43;81.50
4273;BME280;63887;53.656;9.810;2023-02-21T12:53:14;101669.16;;;10.47;81.58
4273;BME280;63887;53.656;9.810;2023-02-21T12:55:44;101662.63;;;10.35;81.66
4273;BME280;63887;53.656;9.810;2023-02-21T12:58:14;101665.72;;;10.23;82.15
4273;BME280;63887;53.656;9.810;2023-02-21T13:00:43;101674.78;;;10.14;82.43
4273;BME280;63887;53.656;9.810;2023-02-21T13:03:21;101667.00;;;10.11;82.01
4273;BME280;63887;53.656;9.810;2023-02-21T13:05:50;101664.63;;;10.05;82.10
4273;BME280;63887;53.656;9.810;2023-02-21T13:08:20;101663.84;;;10.03;82.16
4273;BME280;63887;53.656;9.810;2023-02-21T13:10:50;101668.94;;;10.06;83.15
4273;BME280;63887;53.656;9.810;2023-02-21T13:13:18;101670.72;;;10.05;83.58
4273;BME280;63887;53.656;9.810;2023-02-21T13:15:47;101665.34;;;10.08;83.59
4273;BME280;63887;53.656;9.810;2023-02-21T13:18:15;101672.88;;;10.18;81.52
4273;BME280;63887;53.656;9.810;2023-02-21T13:20:44;101670.69;;;10.30;79.77
4273;BME280;63887;53.656;9.810;2023-02-21T13:26:38;101670.06;;;10.00;82.13
4273;BME280;63887;53.656;9.810;2023-02-21T13:29:09;101668.03;;;10.07;82.29
4273;BME280;63887;53.656;9.810;2023-02-21T13:31:38;101661.28;;;10.01;81.97
4273;BME280;63887;53.656;9.810;2023-02-21T13:34:07;101672.59;;;10.02;81.68